sensor_id;sensor_type;location;lat;lon;timestamp;P1;durP1;ratioP1;P2;durP2;ratioP2
11711;SDS011;5912;51.034;6.984;2023-08-17T00:00:43;9.05;;;4.65;;
11711;SDS011;5912;51.034;6.984;2023-08-17T00:03:09;5.53;;;4.60;;
11711;SDS011;5912;51.034;6.984;2023-08-17T00:05:34;5.13;;;4.63;;
11711;SDS011;5912;51.034;6.984;2023-08-17T00:08:00;5.13;;;4.63;;
11711;SDS011;5912;51.034;6.984;2023-08-17T00:10:27;7.20;;;4.90;;
11711;SDS011;5912;51.034;6.984;2023-08-17T00:12:53;6.45;;;4.00;;
11711;SDS011;5912;51.034;6.984;2023-08-17T00:15:18;6.28;;;3.80;;
11711;SDS011;5912;51.034;6.984;2023-08-17T00:17:43;8.40;;;4.38;;
11711;SDS011;5912;51.034;6.984;2023-08-17T00:20:08;6.80;;;4.40;;
11711;SDS011;5912;51.034;6.984;2023-08-17T00:22:35;5.15;;;3.88;;
11711;SDS011;5912;51.034;6.984;2023-08-17T00:25:00;5.40;;;4.90;;
11711;SDS011;5912;51.034;6.984;2023-08-17T00:27:26;5.93;;;4.57;;
11711;SDS011;5912;51.034;6.984;2023-08-17T00:29:51;4.20;;;3.80;;
11711;SDS011;5912;51.034;6.984;2023-08-17T00:32:17;4.60;;;4.10;;
11711;SDS011;5912;51.034;6.984;2023-08-17T00:34:42;5.88;;;5.28;;
11711;SDS011;5912;51.034;6.984;2023-08-17T00:37:07;6.10;;;4.55;;
11711;SDS011;5912;51.034;6.984;2023-08-17T00:39:33;5.60;;;5.00;;
11711;SDS011;5912;51.034;6.984;2023-08-17T00:41:58;7.05;;;4.63;;
11711;SDS011;5912;51.034;6.984;2023-08-17T00:44:24;4.63;;;4.07;;
11711;SDS011;5912;51.034;6.984;2023-08-17T00:46:49;7.22;;;4.68;;
11711;SDS011;5912;51.034;6.984;2023-08-17T00:49:14;4.72;;;4.32;;
11711;SDS011;5912;51.034;6.984;2023-08-17T00:51:40;4.22;;;3.83;;
11711;SDS011;5912;51.034;6.984;2023-08-17T00:54:06;4.20;;;3.80;;
11711;SDS011;5912;51.034;6.984;2023-08-17T00:56:32;6.57;;;4.10;;
11711;SDS011;5912;51.034;6.984;2023-08-17T00:58:58;4.38;;;3.70;;
11711;SDS011;5912;51.034;6.984;2023-08-17T01:01:23;3.70;;;3.33;;
11711;SDS011;5912;51.034;6.984;2023-08-17T01:03:49;4.47;;;4.07;;
11711;SDS011;5912;51.034;6.984;2023-08-17T01:06:21;4.13;;;3.22;;
11711;SDS011;5912;51.034;6.984;2023-08-17T01:08:46;6.13;;;4.47;;
11711;SDS011;5912;51.034;6.984;2023-08-17T01:16:55;4.95;;;3.78;;
11711;SDS011;5912;51.034;6.984;2023-08-17T01:19:26;4.65;;;3.50;;
11711;SDS011;5912;51.034;6.984;2023-08-17T01:21:54;4.10;;;3.70;;
11711;SDS011;5912;51.034;6.984;2023-08-17T01:24:33;5.32;;;4.75;;
11711;SDS011;5912;51.034;6.984;2023-08-17T01:26:58;4.20;;;3.80;;
11711;SDS011;5912;51.034;6.984;2023-08-17T01:29:23;6.00;;;4.50;;
11711;SDS011;5912;51.034;6.984;2023-08-17T01:35:00;5.22;;;4.70;;
11711;SDS011;5912;51.034;6.984;2023-08-17T01:37:29;5.78;;;5.28;;
11711;SDS011;5912;51.034;6.984;2023-08-17T01:39:58;6.47;;;5.70;;
11711;SDS011;5912;51.034;6.984;2023-08-17T01:42:24;5.88;;;5.28;;
11711;SDS011;5912;51.034;6.984;2023-08-17T01:44:50;6.30;;;5.28;;
11711;SDS011;5912;51.034;6.984;2023-08-17T01:47:20;5.65;;;4.60;;
11711;SDS011;5912;51.034;6.984;2023-08-17T01:49:46;5.97;;;4.68;;
11711;SDS011;5912;51.034;6.984;2023-08-17T01:52:11;6.72;;;6.05;;
11711;SDS011;5912;51.034;6.984;2023-08-17T01:54:37;5.93;;;5.43;;
11711;SDS011;5912;51.034;6.984;2023-08-17T01:57:02;6.22;;;5.63;;
11711;SDS011;5912;51.034;6.984;2023-08-17T01:59:27;6.53;;;5.20;;
11711;SDS011;5912;51.034;6.984;2023-08-17T02:01:53;7.03;;;6.32;;
11711;SDS011;5912;51.034;6.984;2023-08-17T02:04:18;5.07;;;4.68;;
11711;SDS011;5912;51.034;6.984;2023-08-17T02:06:43;4.70;;;4.20;;
11711;SDS011;5912;51.034;6.984;2023-08-17T02:09:08;6.25;;;5.60;;
11711;SDS011;5912;51.034;6.984;2023-08-17T02:11:34;5.47;;;4.97;;
11711;SDS011;5912;51.034;6.984;2023-08-17T02:13:59;5.35;;;4.68;;
11711;SDS011;5912;51.034;6.984;2023-08-17T02:16:24;5.93;;;5.32;;
11711;SDS011;5912;51.034;6.984;2023-08-17T02:18:50;5.60;;;5.03;;
11711;SDS011;5912;51.034;6.984;2023-08-17T02:21:15;4.80;;;4.07;;
11711;SDS011;5912;51.034;6.984;2023-08-17T02:23:40;4.32;;;3.92;;
11711;SDS011;5912;51.034;6.984;2023-08-17T02:26:05;5.13;;;3.55;;
11711;SDS011;5912;51.034;6.984;2023-08-17T02:28:31;5.47;;;4.20;;
11711;SDS011;5912;51.034;6.984;2023-08-17T02:30:56;3.63;;;3.00;;
11711;SDS011;5912;51.034;6.984;2023-08-17T02:33:23;3.33;;;3.13;;
11711;SDS011;5912;51.034;6.984;2023-08-17T02:35:49;3.90;;;3.22;;
11711;SDS011;5912;51.034;6.984;2023-08-17T02:38:15;3.78;;;3.40;;
11711;SDS011;5912;51.034;6.984;2023-08-17T02:40:40;3.63;;;3.08;;
11711;SDS011;5912;51.034;6.984;2023-08-17T02:43:06;4.10;;;3.70;;
11711;SDS011;5912;51.034;6.984;2023-08-17T02:45:31;4.07;;;3.35;;
11711;SDS011;5912;51.034;6.984;2023-08-17T02:47:58;3.95;;;3.20;;
11711;SDS011;5912;51.034;6.984;2023-08-17T02:50:24;4.45;;;3.95;;
11711;SDS011;5912;51.034;6.984;2023-08-17T02:52:49;3.58;;;3.28;;
11711;SDS011;5912;51.034;6.984;2023-08-17T02:55:14;3.97;;;3.25;;
11711;SDS011;5912;51.034;6.984;2023-08-17T02:57:40;3.40;;;2.95;;
11711;SDS011;5912;51.034;6.984;2023-08-17T03:00:05;2.70;;;2.50;;
11711;SDS011;5912;51.034;6.984;2023-08-17T03:02:31;2.67;;;2.45;;
11711;SDS011;5912;51.034;6.984;2023-08-17T03:04:56;3.33;;;2.70;;
11711;SDS011;5912;51.034;6.984;2023-08-17T03:07:21;3.15;;;2.90;;
11711;SDS011;5912;51.034;6.984;2023-08-17T03:09:47;2.83;;;2.63;;
11711;SDS011;5912;51.034;6.984;2023-08-17T03:12:12;2.67;;;2.47;;
11711;SDS011;5912;51.034;6.984;2023-08-17T03:14:37;5.63;;;2.92;;
11711;SDS011;5912;51.034;6.984;2023-08-17T03:17:03;3.08;;;2.75;;
11711;SDS011;5912;51.034;6.984;2023-08-17T03:19:28;3.53;;;2.83;;
11711;SDS011;5912;51.034;6.984;2023-08-17T03:21:54;4.88;;;3.33;;
11711;SDS011;5912;51.034;6.984;2023-08-17T03:24:19;4.63;;;2.88;;
11711;SDS011;5912;51.034;6.984;2023-08-17T03:26:44;3.67;;;3.22;;
11711;SDS011;5912;51.034;6.984;2023-08-17T03:29:09;5.15;;;4.15;;
11711;SDS011;5912;51.034;6.984;2023-08-17T03:31:35;3.53;;;3.22;;
11711;SDS011;5912;51.034;6.984;2023-08-17T03:34:00;5.57;;;3.97;;
11711;SDS011;5912;51.034;6.984;2023-08-17T03:36:26;3.63;;;3.33;;
11711;SDS011;5912;51.034;6.984;2023-08-17T03:38:51;3.40;;;3.10;;
11711;SDS011;5912;51.034;6.984;2023-08-17T03:41:16;4.70;;;3.95;;
11711;SDS011;5912;51.034;6.984;2023-08-17T03:43:43;5.25;;;4.05;;
11711;SDS011;5912;51.034;6.984;2023-08-17T03:46:08;4.20;;;3.80;;
11711;SDS011;5912;51.034;6.984;2023-08-17T03:48:34;3.95;;;3.55;;
11711;SDS011;5912;51.034;6.984;2023-08-17T03:50:59;4.15;;;3.72;;
11711;SDS011;5912;51.034;6.984;2023-08-17T03:53:26;4.55;;;3.97;;
11711;SDS011;5912;51.034;6.984;2023-08-17T03:55:51;4.55;;;4.15;;
11711;SDS011;5912;51.034;6.984;2023-08-17T03:58:17;5.00;;;4.60;;
11711;SDS011;5912;51.034;6.984;2023-08-17T04:00:49;4.80;;;4.40;;
11711;SDS011;5912;51.034;6.984;2023-08-17T04:03:18;5.05;;;4.55;;
11711;SDS011;5912;51.034;6.984;2023-08-17T04:05:44;4.68;;;4.30;;
11711;SDS011;5912;51.034;6.984;2023-08-17T04:08:09;6.35;;;5.00;;
11711;SDS011;5912;51.034;6.984;2023-08-17T04:10:34;5.60;;;5.10;;
11711;SDS011;5912;51.034;6.984;2023-08-17T04:13:00;5.30;;;4.70;;
11711;SDS011;5912;51.034;6.984;2023-08-17T04:15:25;5.22;;;4.72;;
11711;SDS011;5912;51.034;6.984;2023-08-17T04:17:50;8.00;;;4.60;;
11711;SDS011;5912;51.034;6.984;2023-08-17T04:20:16;7.50;;;4.53;;
11711;SDS011;5912;51.034;6.984;2023-08-17T04:22:43;5.25;;;4.75;;
11711;SDS011;5912;51.034;6.984;2023-08-17T04:25:08;5.53;;;4.78;;
11711;SDS011;5912;51.034;6.984;2023-08-17T04:27:33;8.00;;;5.28;;
11711;SDS011;5912;51.034;6.984;2023-08-17T04:29:59;6.90;;;4.65;;
11711;SDS011;5912;51.034;6.984;2023-08-17T04:32:25;5.38;;;4.82;;
11711;SDS011;5912;51.034;6.984;2023-08-17T04:34:50;6.50;;;4.85;;
11711;SDS011;5912;51.034;6.984;2023-08-17T04:37:16;4.55;;;4.22;;
11711;SDS011;5912;51.034;6.984;2023-08-17T04:39:41;5.05;;;4.65;;
11711;SDS011;5912;51.034;6.984;2023-08-17T04:42:08;4.75;;;4.35;;
11711;SDS011;5912;51.034;6.984;2023-08-17T04:44:34;5.32;;;4.85;;
11711;SDS011;5912;51.034;6.984;2023-08-17T04:46:59;4.82;;;4.35;;
11711;SDS011;5912;51.034;6.984;2023-08-17T04:49:25;5.68;;;5.15;;
11711;SDS011;5912;51.034;6.984;2023-08-17T04:51:51;5.22;;;4.70;;
11711;SDS011;5912;51.034;6.984;2023-08-17T04:54:16;6.40;;;4.50;;
11711;SDS011;5912;51.034;6.984;2023-08-17T04:56:42;6.45;;;5.10;;
11711;SDS011;5912;51.034;6.984;2023-08-17T04:59:08;6.47;;;5.88;;
11711;SDS011;5912;51.034;6.984;2023-08-17T05:01:33;6.50;;;5.82;;
11711;SDS011;5912;51.034;6.984;2023-08-17T05:03:59;6.22;;;5.32;;
11711;SDS011;5912;51.034;6.984;2023-08-17T05:06:24;6.90;;;5.32;;
11711;SDS011;5912;51.034;6.984;2023-08-17T05:08:49;7.55;;;5.38;;
11711;SDS011;5912;51.034;6.984;2023-08-17T05:11:15;6.10;;;5.50;;
11711;SDS011;5912;51.034;6.984;2023-08-17T05:13:40;5.40;;;4.90;;
11711;SDS011;5912;51.034;6.984;2023-08-17T05:16:05;11.05;;;6.25;;
11711;SDS011;5912;51.034;6.984;2023-08-17T05:18:31;8.80;;;7.32;;
11711;SDS011;5912;51.034;6.984;2023-08-17T05:20:56;8.25;;;6.13;;
11711;SDS011;5912;51.034;6.984;2023-08-17T05:23:21;6.55;;;5.43;;
11711;SDS011;5912;51.034;6.984;2023-08-17T05:25:47;6.60;;;5.90;;
11711;SDS011;5912;51.034;6.984;2023-08-17T05:28:13;7.00;;;6.25;;
11711;SDS011;5912;51.034;6.984;2023-08-17T05:30:38;7.03;;;5.60;;
11711;SDS011;5912;51.034;6.984;2023-08-17T05:33:04;5.78;;;5.22;;
11711;SDS011;5912;51.034;6.984;2023-08-17T05:35:29;6.80;;;5.38;;
11711;SDS011;5912;51.034;6.984;2023-08-17T05:37:55;6.70;;;5.00;;
11711;SDS011;5912;51.034;6.984;2023-08-17T05:40:20;6.78;;;6.18;;
11711;SDS011;5912;51.034;6.984;2023-08-17T05:42:45;6.35;;;5.50;;
11711;SDS011;5912;51.034;6.984;2023-08-17T05:45:10;5.57;;;5.03;;
11711;SDS011;5912;51.034;6.984;2023-08-17T05:47:36;4.35;;;3.95;;
11711;SDS011;5912;51.034;6.984;2023-08-17T05:50:01;6.38;;;5.47;;
11711;SDS011;5912;51.034;6.984;2023-08-17T05:52:27;8.23;;;6.85;;
11711;SDS011;5912;51.034;6.984;2023-08-17T05:54:52;6.65;;;6.05;;
11711;SDS011;5912;51.034;6.984;2023-08-17T05:57:17;6.03;;;5.43;;
11711;SDS011;5912;51.034;6.984;2023-08-17T05:59:43;5.95;;;5.35;;
11711;SDS011;5912;51.034;6.984;2023-08-17T06:02:08;5.22;;;4.65;;
11711;SDS011;5912;51.034;6.984;2023-08-17T06:04:34;7.05;;;6.35;;
11711;SDS011;5912;51.034;6.984;2023-08-17T06:06:59;7.30;;;5.78;;
11711;SDS011;5912;51.034;6.984;2023-08-17T06:09:24;5.65;;;5.15;;
11711;SDS011;5912;51.034;6.984;2023-08-17T06:11:49;5.93;;;5.32;;
11711;SDS011;5912;51.034;6.984;2023-08-17T06:14:15;7.30;;;5.80;;
11711;SDS011;5912;51.034;6.984;2023-08-17T06:16:40;7.72;;;6.72;;
11711;SDS011;5912;51.034;6.984;2023-08-17T06:19:05;7.05;;;5.85;;
11711;SDS011;5912;51.034;6.984;2023-08-17T06:21:31;5.00;;;4.50;;
11711;SDS011;5912;51.034;6.984;2023-08-17T06:23:56;5.03;;;4.53;;
11711;SDS011;5912;51.034;6.984;2023-08-17T06:26:21;4.53;;;4.13;;
11711;SDS011;5912;51.034;6.984;2023-08-17T06:28:47;6.97;;;5.68;;
11711;SDS011;5912;51.034;6.984;2023-08-17T06:31:14;5.97;;;5.25;;
11711;SDS011;5912;51.034;6.984;2023-08-17T06:33:49;6.32;;;5.28;;
11711;SDS011;5912;51.034;6.984;2023-08-17T06:36:14;4.95;;;4.55;;
11711;SDS011;5912;51.034;6.984;2023-08-17T06:38:41;4.22;;;3.83;;
11711;SDS011;5912;51.034;6.984;2023-08-17T06:41:07;5.53;;;4.93;;
11711;SDS011;5912;51.034;6.984;2023-08-17T06:43:32;4.57;;;4.10;;
11711;SDS011;5912;51.034;6.984;2023-08-17T06:45:58;5.38;;;4.50;;
11711;SDS011;5912;51.034;6.984;2023-08-17T06:48:25;6.70;;;4.97;;
11711;SDS011;5912;51.034;6.984;2023-08-17T06:50:50;5.88;;;4.95;;
11711;SDS011;5912;51.034;6.984;2023-08-17T06:53:16;4.28;;;3.88;;
11711;SDS011;5912;51.034;6.984;2023-08-17T06:55:41;5.53;;;3.88;;
11711;SDS011;5912;51.034;6.984;2023-08-17T06:58:06;4.32;;;3.92;;
11711;SDS011;5912;51.034;6.984;2023-08-17T07:00:32;5.10;;;3.60;;
11711;SDS011;5912;51.034;6.984;2023-08-17T07:02:57;6.80;;;3.78;;
11711;SDS011;5912;51.034;6.984;2023-08-17T07:05:23;8.95;;;4.75;;
11711;SDS011;5912;51.034;6.984;2023-08-17T07:07:48;3.78;;;3.38;;
11711;SDS011;5912;51.034;6.984;2023-08-17T07:10:14;4.07;;;3.30;;
11711;SDS011;5912;51.034;6.984;2023-08-17T07:12:39;3.72;;;3.20;;
11711;SDS011;5912;51.034;6.984;2023-08-17T07:15:05;3.47;;;3.05;;
11711;SDS011;5912;51.034;6.984;2023-08-17T07:17:31;4.28;;;3.67;;
11711;SDS011;5912;51.034;6.984;2023-08-17T07:19:58;3.25;;;2.95;;
11711;SDS011;5912;51.034;6.984;2023-08-17T07:22:24;6.40;;;3.90;;
11711;SDS011;5912;51.034;6.984;2023-08-17T07:24:49;5.55;;;4.28;;
11711;SDS011;5912;51.034;6.984;2023-08-17T07:27:14;4.32;;;3.15;;
11711;SDS011;5912;51.034;6.984;2023-08-17T07:29:40;3.85;;;3.42;;
11711;SDS011;5912;51.034;6.984;2023-08-17T07:32:05;4.85;;;3.95;;
11711;SDS011;5912;51.034;6.984;2023-08-17T07:34:30;3.88;;;3.45;;
11711;SDS011;5912;51.034;6.984;2023-08-17T07:36:56;4.10;;;3.58;;
11711;SDS011;5912;51.034;6.984;2023-08-17T07:39:22;3.80;;;3.40;;
11711;SDS011;5912;51.034;6.984;2023-08-17T07:41:47;4.05;;;3.15;;
11711;SDS011;5912;51.034;6.984;2023-08-17T07:44:13;2.95;;;2.65;;
11711;SDS011;5912;51.034;6.984;2023-08-17T07:46:38;5.30;;;3.30;;
11711;SDS011;5912;51.034;6.984;2023-08-17T07:49:03;2.70;;;2.45;;
11711;SDS011;5912;51.034;6.984;2023-08-17T07:51:29;3.33;;;3.03;;
11711;SDS011;5912;51.034;6.984;2023-08-17T07:53:56;3.75;;;3.00;;
11711;SDS011;5912;51.034;6.984;2023-08-17T07:56:22;2.88;;;2.67;;
11711;SDS011;5912;51.034;6.984;2023-08-17T07:58:47;4.70;;;3.50;;
11711;SDS011;5912;51.034;6.984;2023-08-17T08:01:12;3.40;;;3.10;;
11711;SDS011;5912;51.034;6.984;2023-08-17T08:03:37;4.70;;;3.38;;
11711;SDS011;5912;51.034;6.984;2023-08-17T08:06:03;3.60;;;3.30;;
11711;SDS011;5912;51.034;6.984;2023-08-17T08:08:28;3.20;;;2.88;;
11711;SDS011;5912;51.034;6.984;2023-08-17T08:10:53;4.28;;;3.25;;
11711;SDS011;5912;51.034;6.984;2023-08-17T08:13:19;3.75;;;3.10;;
11711;SDS011;5912;51.034;6.984;2023-08-17T08:15:45;3.40;;;3.10;;
11711;SDS011;5912;51.034;6.984;2023-08-17T08:18:10;4.63;;;3.90;;
11711;SDS011;5912;51.034;6.984;2023-08-17T08:20:35;3.40;;;3.10;;
11711;SDS011;5912;51.034;6.984;2023-08-17T08:23:00;3.47;;;3.17;;
11711;SDS011;5912;51.034;6.984;2023-08-17T08:25:27;3.42;;;3.10;;
11711;SDS011;5912;51.034;6.984;2023-08-17T08:27:52;4.22;;;3.40;;
11711;SDS011;5912;51.034;6.984;2023-08-17T08:30:17;5.13;;;3.90;;
11711;SDS011;5912;51.034;6.984;2023-08-17T08:32:43;4.53;;;3.80;;
11711;SDS011;5912;51.034;6.984;2023-08-17T08:35:08;3.42;;;3.13;;
11711;SDS011;5912;51.034;6.984;2023-08-17T08:37:34;3.35;;;3.05;;
11711;SDS011;5912;51.034;6.984;2023-08-17T08:39:59;3.50;;;3.00;;
11711;SDS011;5912;51.034;6.984;2023-08-17T08:42:24;3.40;;;3.10;;
11711;SDS011;5912;51.034;6.984;2023-08-17T08:44:50;3.60;;;3.05;;
11711;SDS011;5912;51.034;6.984;2023-08-17T08:47:16;8.88;;;7.65;;
11711;SDS011;5912;51.034;6.984;2023-08-17T08:50:03;6.80;;;5.45;;
11711;SDS011;5912;51.034;6.984;2023-08-17T08:52:42;5.13;;;4.20;;
11711;SDS011;5912;51.034;6.984;2023-08-17T08:55:15;4.75;;;4.18;;
11711;SDS011;5912;51.034;6.984;2023-08-17T08:57:43;4.60;;;4.18;;
11711;SDS011;5912;51.034;6.984;2023-08-17T09:00:09;5.60;;;4.70;;
11711;SDS011;5912;51.034;6.984;2023-08-17T09:02:36;5.90;;;3.55;;
11711;SDS011;5912;51.034;6.984;2023-08-17T09:05:02;4.10;;;3.70;;
11711;SDS011;5912;51.034;6.984;2023-08-17T09:07:31;5.00;;;4.45;;
11711;SDS011;5912;51.034;6.984;2023-08-17T09:09:57;6.97;;;4.38;;
11711;SDS011;5912;51.034;6.984;2023-08-17T09:12:24;5.82;;;4.28;;
11711;SDS011;5912;51.034;6.984;2023-08-17T09:14:50;6.13;;;3.90;;
11711;SDS011;5912;51.034;6.984;2023-08-17T09:17:22;4.30;;;3.40;;
11711;SDS011;5912;51.034;6.984;2023-08-17T09:19:48;4.45;;;3.78;;
11711;SDS011;5912;51.034;6.984;2023-08-17T09:22:14;5.10;;;3.95;;
11711;SDS011;5912;51.034;6.984;2023-08-17T09:24:47;8.68;;;6.22;;
11711;SDS011;5912;51.034;6.984;2023-08-17T09:27:12;6.22;;;5.60;;
11711;SDS011;5912;51.034;6.984;2023-08-17T09:29:40;7.50;;;5.65;;
11711;SDS011;5912;51.034;6.984;2023-08-17T09:32:08;7.07;;;4.68;;
11711;SDS011;5912;51.034;6.984;2023-08-17T09:34:35;5.72;;;4.15;;
11711;SDS011;5912;51.034;6.984;2023-08-17T09:37:03;4.47;;;3.58;;
11711;SDS011;5912;51.034;6.984;2023-08-17T09:39:31;4.30;;;3.38;;
11711;SDS011;5912;51.034;6.984;2023-08-17T09:41:57;4.32;;;3.92;;
11711;SDS011;5912;51.034;6.984;2023-08-17T09:44:22;5.72;;;3.70;;
11711;SDS011;5912;51.034;6.984;2023-08-17T09:46:48;5.55;;;4.35;;
11711;SDS011;5912;51.034;6.984;2023-08-17T09:49:13;5.13;;;4.05;;
11711;SDS011;5912;51.034;6.984;2023-08-17T09:51:42;6.50;;;3.50;;
11711;SDS011;5912;51.034;6.984;2023-08-17T09:54:09;4.25;;;3.70;;
11711;SDS011;5912;51.034;6.984;2023-08-17T09:56:45;4.30;;;3.47;;
11711;SDS011;5912;51.034;6.984;2023-08-17T09:59:10;4.00;;;3.47;;
11711;SDS011;5912;51.034;6.984;2023-08-17T10:01:35;4.20;;;3.80;;
11711;SDS011;5912;51.034;6.984;2023-08-17T10:04:01;4.10;;;3.65;;
11711;SDS011;5912;51.034;6.984;2023-08-17T10:06:27;5.68;;;4.07;;
11711;SDS011;5912;51.034;6.984;2023-08-17T10:08:56;3.70;;;3.20;;
11711;SDS011;5912;51.034;6.984;2023-08-17T10:11:23;5.78;;;4.30;;
11711;SDS011;5912;51.034;6.984;2023-08-17T10:13:51;4.03;;;3.63;;
11711;SDS011;5912;51.034;6.984;2023-08-17T10:17:08;5.57;;;4.00;;
11711;SDS011;5912;51.034;6.984;2023-08-17T10:24:52;5.65;;;4.50;;
11711;SDS011;5912;51.034;6.984;2023-08-17T10:27:20;6.05;;;4.88;;
11711;SDS011;5912;51.034;6.984;2023-08-17T10:29:46;5.20;;;3.88;;
11711;SDS011;5912;51.034;6.984;2023-08-17T10:32:12;5.20;;;4.28;;
11711;SDS011;5912;51.034;6.984;2023-08-17T10:37:27;4.97;;;3.80;;
11711;SDS011;5912;51.034;6.984;2023-08-17T10:39:54;4.40;;;4.00;;
11711;SDS011;5912;51.034;6.984;2023-08-17T10:42:40;5.22;;;3.85;;
11711;SDS011;5912;51.034;6.984;2023-08-17T10:50:33;3.95;;;3.55;;
11711;SDS011;5912;51.034;6.984;2023-08-17T10:53:10;4.28;;;3.88;;
11711;SDS011;5912;51.034;6.984;2023-08-17T10:55:37;4.78;;;4.30;;
11711;SDS011;5912;51.034;6.984;2023-08-17T10:58:06;4.40;;;4.00;;
11711;SDS011;5912;51.034;6.984;2023-08-17T11:00:38;4.00;;;3.60;;
11711;SDS011;5912;51.034;6.984;2023-08-17T11:03:05;6.70;;;4.40;;
11711;SDS011;5912;51.034;6.984;2023-08-17T11:05:36;4.63;;;4.05;;
11711;SDS011;5912;51.034;6.984;2023-08-17T11:08:22;4.15;;;3.65;;
11711;SDS011;5912;51.034;6.984;2023-08-17T11:13:37;3.90;;;3.50;;
11711;SDS011;5912;51.034;6.984;2023-08-17T11:16:07;4.43;;;3.75;;
11711;SDS011;5912;51.034;6.984;2023-08-17T11:18:34;4.20;;;3.72;;
11711;SDS011;5912;51.034;6.984;2023-08-17T11:21:00;3.65;;;3.35;;
11711;SDS011;5912;51.034;6.984;2023-08-17T11:23:29;3.95;;;3.58;;
11711;SDS011;5912;51.034;6.984;2023-08-17T11:25:55;5.22;;;3.67;;
11711;SDS011;5912;51.034;6.984;2023-08-17T11:28:21;5.07;;;3.70;;
11711;SDS011;5912;51.034;6.984;2023-08-17T11:30:57;4.13;;;3.72;;
11711;SDS011;5912;51.034;6.984;2023-08-17T11:33:25;4.20;;;3.80;;
11711;SDS011;5912;51.034;6.984;2023-08-17T11:35:55;3.72;;;3.25;;
11711;SDS011;5912;51.034;6.984;2023-08-17T11:38:21;3.53;;;3.22;;
11711;SDS011;5912;51.034;6.984;2023-08-17T11:40:47;4.20;;;3.80;;
11711;SDS011;5912;51.034;6.984;2023-08-17T11:43:13;3.88;;;3.58;;
11711;SDS011;5912;51.034;6.984;2023-08-17T11:45:39;3.58;;;3.05;;
11711;SDS011;5912;51.034;6.984;2023-08-17T11:48:04;4.38;;;3.70;;
11711;SDS011;5912;51.034;6.984;2023-08-17T11:50:30;5.72;;;4.03;;
11711;SDS011;5912;51.034;6.984;2023-08-17T11:52:58;5.70;;;3.40;;
11711;SDS011;5912;51.034;6.984;2023-08-17T11:55:24;3.25;;;2.83;;
11711;SDS011;5912;51.034;6.984;2023-08-17T11:57:49;4.13;;;3.47;;
11711;SDS011;5912;51.034;6.984;2023-08-17T12:00:19;3.92;;;3.50;;
11711;SDS011;5912;51.034;6.984;2023-08-17T12:02:48;4.25;;;3.35;;
11711;SDS011;5912;51.034;6.984;2023-08-17T12:05:24;3.35;;;3.03;;
11711;SDS011;5912;51.034;6.984;2023-08-17T12:07:52;3.45;;;3.15;;
11711;SDS011;5912;51.034;6.984;2023-08-17T12:10:19;4.22;;;3.13;;
11711;SDS011;5912;51.034;6.984;2023-08-17T12:12:46;3.33;;;3.03;;
11711;SDS011;5912;51.034;6.984;2023-08-17T12:15:12;3.22;;;2.90;;
11711;SDS011;5912;51.034;6.984;2023-08-17T12:17:41;3.88;;;3.10;;
11711;SDS011;5912;51.034;6.984;2023-08-17T12:20:14;4.97;;;3.42;;
11711;SDS011;5912;51.034;6.984;2023-08-17T12:22:43;4.82;;;3.30;;
11711;SDS011;5912;51.034;6.984;2023-08-17T12:25:09;3.63;;;3.20;;
11711;SDS011;5912;51.034;6.984;2023-08-17T12:27:35;3.78;;;3.25;;
11711;SDS011;5912;51.034;6.984;2023-08-17T12:30:00;3.60;;;3.30;;
11711;SDS011;5912;51.034;6.984;2023-08-17T12:32:26;5.68;;;4.00;;
11711;SDS011;5912;51.034;6.984;2023-08-17T12:34:51;5.60;;;3.25;;
11711;SDS011;5912;51.034;6.984;2023-08-17T12:37:20;4.10;;;3.50;;
11711;SDS011;5912;51.034;6.984;2023-08-17T12:39:46;5.75;;;3.35;;
11711;SDS011;5912;51.034;6.984;2023-08-17T12:42:12;3.88;;;3.47;;
11711;SDS011;5912;51.034;6.984;2023-08-17T12:44:38;3.20;;;2.90;;
11711;SDS011;5912;51.034;6.984;2023-08-17T12:47:04;3.42;;;3.08;;
11711;SDS011;5912;51.034;6.984;2023-08-17T12:49:29;3.13;;;2.83;;
11711;SDS011;5912;51.034;6.984;2023-08-17T12:51:55;3.50;;;3.20;;
11711;SDS011;5912;51.034;6.984;2023-08-17T12:54:20;4.10;;;3.03;;
11711;SDS011;5912;51.034;6.984;2023-08-17T12:56:45;4.25;;;3.25;;
11711;SDS011;5912;51.034;6.984;2023-08-17T12:59:11;4.65;;;3.13;;
11711;SDS011;5912;51.034;6.984;2023-08-17T13:01:36;3.20;;;2.90;;
11711;SDS011;5912;51.034;6.984;2023-08-17T13:04:01;4.35;;;2.97;;
11711;SDS011;5912;51.034;6.984;2023-08-17T13:06:27;4.35;;;3.65;;
11711;SDS011;5912;51.034;6.984;2023-08-17T13:08:52;3.08;;;2.83;;
11711;SDS011;5912;51.034;6.984;2023-08-17T13:11:17;3.70;;;3.20;;
11711;SDS011;5912;51.034;6.984;2023-08-17T13:13:43;3.67;;;2.97;;
11711;SDS011;5912;51.034;6.984;2023-08-17T13:16:08;4.13;;;3.08;;
11711;SDS011;5912;51.034;6.984;2023-08-17T13:18:34;3.67;;;3.35;;
11711;SDS011;5912;51.034;6.984;2023-08-17T13:20:59;4.60;;;3.35;;
11711;SDS011;5912;51.034;6.984;2023-08-17T13:23:24;3.72;;;3.40;;
11711;SDS011;5912;51.034;6.984;2023-08-17T13:25:49;3.90;;;3.60;;
11711;SDS011;5912;51.034;6.984;2023-08-17T13:28:15;4.07;;;3.67;;
11711;SDS011;5912;51.034;6.984;2023-08-17T13:30:40;3.67;;;3.38;;
11711;SDS011;5912;51.034;6.984;2023-08-17T13:33:06;4.78;;;3.35;;
11711;SDS011;5912;51.034;6.984;2023-08-17T13:35:31;3.40;;;3.10;;
11711;SDS011;5912;51.034;6.984;2023-08-17T13:37:57;3.45;;;3.15;;
11711;SDS011;5912;51.034;6.984;2023-08-17T13:40:23;3.30;;;3.10;;
11711;SDS011;5912;51.034;6.984;2023-08-17T13:42:48;3.70;;;3.10;;
11711;SDS011;5912;51.034;6.984;2023-08-17T13:45:14;3.28;;;2.97;;
11711;SDS011;5912;51.034;6.984;2023-08-17T13:47:39;3.42;;;3.10;;
11711;SDS011;5912;51.034;6.984;2023-08-17T13:50:04;3.60;;;3.30;;
11711;SDS011;5912;51.034;6.984;2023-08-17T13:52:30;4.50;;;3.50;;
11711;SDS011;5912;51.034;6.984;2023-08-17T13:54:56;3.42;;;3.10;;
11711;SDS011;5912;51.034;6.984;2023-08-17T13:57:21;3.75;;;3.45;;
11711;SDS011;5912;51.034;6.984;2023-08-17T13:59:46;4.15;;;3.55;;
11711;SDS011;5912;51.034;6.984;2023-08-17T14:02:12;4.10;;;3.80;;
11711;SDS011;5912;51.034;6.984;2023-08-17T14:04:37;4.10;;;3.40;;
11711;SDS011;5912;51.034;6.984;2023-08-17T14:07:02;4.72;;;3.05;;
11711;SDS011;5912;51.034;6.984;2023-08-17T14:09:29;4.07;;;3.53;;
11711;SDS011;5912;51.034;6.984;2023-08-17T14:11:55;4.03;;;3.63;;
11711;SDS011;5912;51.034;6.984;2023-08-17T14:14:20;3.63;;;3.33;;
11711;SDS011;5912;51.034;6.984;2023-08-17T14:16:45;3.10;;;2.80;;
11711;SDS011;5912;51.034;6.984;2023-08-17T14:19:10;4.18;;;3.10;;
11711;SDS011;5912;51.034;6.984;2023-08-17T14:21:36;3.63;;;3.28;;
11711;SDS011;5912;51.034;6.984;2023-08-17T14:24:01;3.45;;;3.15;;
11711;SDS011;5912;51.034;6.984;2023-08-17T14:26:26;3.38;;;3.08;;
11711;SDS011;5912;51.034;6.984;2023-08-17T14:28:52;3.67;;;3.33;;
11711;SDS011;5912;51.034;6.984;2023-08-17T14:31:36;3.40;;;3.10;;
11711;SDS011;5912;51.034;6.984;2023-08-17T14:34:01;3.47;;;3.17;;
11711;SDS011;5912;51.034;6.984;2023-08-17T14:36:27;4.20;;;3.30;;
11711;SDS011;5912;51.034;6.984;2023-08-17T14:38:52;3.53;;;3.22;;
11711;SDS011;5912;51.034;6.984;2023-08-17T14:41:17;3.65;;;3.35;;
11711;SDS011;5912;51.034;6.984;2023-08-17T14:43:43;4.30;;;3.35;;
11711;SDS011;5912;51.034;6.984;2023-08-17T14:46:08;4.10;;;3.70;;
11711;SDS011;5912;51.034;6.984;2023-08-17T14:48:34;3.67;;;3.28;;
11711;SDS011;5912;51.034;6.984;2023-08-17T14:50:59;4.38;;;3.33;;
11711;SDS011;5912;51.034;6.984;2023-08-17T14:53:24;5.78;;;4.20;;
11711;SDS011;5912;51.034;6.984;2023-08-17T14:55:50;6.22;;;3.75;;
11711;SDS011;5912;51.034;6.984;2023-08-17T14:58:15;3.88;;;3.45;;
11711;SDS011;5912;51.034;6.984;2023-08-17T15:00:41;5.10;;;3.50;;
11711;SDS011;5912;51.034;6.984;2023-08-17T15:03:06;3.67;;;3.38;;
11711;SDS011;5912;51.034;6.984;2023-08-17T15:05:32;3.47;;;3.15;;
11711;SDS011;5912;51.034;6.984;2023-08-17T15:08:00;3.90;;;3.50;;
11711;SDS011;5912;51.034;6.984;2023-08-17T15:10:26;5.28;;;3.58;;
11711;SDS011;5912;51.034;6.984;2023-08-17T15:12:51;4.88;;;3.85;;
11711;SDS011;5912;51.034;6.984;2023-08-17T15:15:16;4.88;;;3.40;;
11711;SDS011;5912;51.034;6.984;2023-08-17T15:17:42;7.22;;;3.50;;
11711;SDS011;5912;51.034;6.984;2023-08-17T15:20:07;3.45;;;3.13;;